sensor_id;sensor_type;location;lat;lon;timestamp;P1;durP1;ratioP1;P2;durP2;ratioP2
13443;SDS011;6794;59.218;18.218;2023-03-09T00:01:35;3.95;;;2.00;;
13443;SDS011;6794;59.218;18.218;2023-03-09T00:04:01;4.53;;;2.25;;
13443;SDS011;6794;59.218;18.218;2023-03-09T00:06:28;3.80;;;2.63;;
13443;SDS011;6794;59.218;18.218;2023-03-09T00:08:54;4.32;;;2.28;;
13443;SDS011;6794;59.218;18.218;2023-03-09T00:11:20;4.22;;;2.50;;
13443;SDS011;6794;59.218;18.218;2023-03-09T00:13:47;4.78;;;2.30;;
13443;SDS011;6794;59.218;18.218;2023-03-09T00:16:14;2.95;;;1.90;;
13443;SDS011;6794;59.218;18.218;2023-03-09T00:18:41;3.45;;;2.42;;
13443;SDS011;6794;59.218;18.218;2023-03-09T00:21:07;3.97;;;2.30;;
13443;SDS011;6794;59.218;18.218;2023-03-09T00:23:50;2.97;;;2.22;;
13443;SDS011;6794;59.218;18.218;2023-03-09T00:26:16;3.90;;;2.05;;
13443;SDS011;6794;59.218;18.218;2023-03-09T00:28:42;3.60;;;2.37;;
13443;SDS011;6794;59.218;18.218;2023-03-09T00:31:08;3.77;;;2.10;;
13443;SDS011;6794;59.218;18.218;2023-03-09T00:33:35;2.83;;;2.42;;
13443;SDS011;6794;59.218;18.218;2023-03-09T00:36:01;3.97;;;2.33;;
13443;SDS011;6794;59.218;18.218;2023-03-09T00:38:27;4.45;;;2.08;;
13443;SDS011;6794;59.218;18.218;2023-03-09T00:40:53;4.25;;;2.22;;
13443;SDS011;6794;59.218;18.218;2023-03-09T00:43:19;5.40;;;2.10;;
13443;SDS011;6794;59.218;18.218;2023-03-09T00:45:45;3.42;;;1.90;;
13443;SDS011;6794;59.218;18.218;2023-03-09T00:48:11;5.13;;;2.50;;
13443;SDS011;6794;59.218;18.218;2023-03-09T00:50:37;4.63;;;2.55;;
13443;SDS011;6794;59.218;18.218;2023-03-09T00:53:03;6.40;;;2.45;;
13443;SDS011;6794;59.218;18.218;2023-03-09T00:55:29;2.67;;;1.83;;
13443;SDS011;6794;59.218;18.218;2023-03-09T00:57:55;5.40;;;2.10;;
13443;SDS011;6794;59.218;18.218;2023-03-09T01:00:21;3.00;;;2.17;;
13443;SDS011;6794;59.218;18.218;2023-03-09T01:02:47;3.55;;;2.00;;
13443;SDS011;6794;59.218;18.218;2023-03-09T01:05:13;3.33;;;2.17;;
13443;SDS011;6794;59.218;18.218;2023-03-09T01:07:39;2.50;;;1.50;;
13443;SDS011;6794;59.218;18.218;2023-03-09T01:10:06;5.03;;;2.45;;
13443;SDS011;6794;59.218;18.218;2023-03-09T01:12:35;2.70;;;2.00;;
13443;SDS011;6794;59.218;18.218;2023-03-09T01:15:02;5.10;;;1.90;;
13443;SDS011;6794;59.218;18.218;2023-03-09T01:17:28;4.90;;;2.20;;
13443;SDS011;6794;59.218;18.218;2023-03-09T01:19:54;4.53;;;2.00;;
13443;SDS011;6794;59.218;18.218;2023-03-09T01:22:20;3.45;;;1.83;;
13443;SDS011;6794;59.218;18.218;2023-03-09T01:24:46;3.33;;;1.83;;
13443;SDS011;6794;59.218;18.218;2023-03-09T01:27:12;4.38;;;2.20;;
13443;SDS011;6794;59.218;18.218;2023-03-09T01:29:38;3.42;;;1.80;;
13443;SDS011;6794;59.218;18.218;2023-03-09T01:32:05;5.68;;;1.98;;
13443;SDS011;6794;59.218;18.218;2023-03-09T01:34:31;2.40;;;1.70;;
13443;SDS011;6794;59.218;18.218;2023-03-09T01:36:57;4.03;;;1.85;;
13443;SDS011;6794;59.218;18.218;2023-03-09T01:39:23;3.00;;;1.90;;
13443;SDS011;6794;59.218;18.218;2023-03-09T01:41:49;2.75;;;1.83;;
13443;SDS011;6794;59.218;18.218;2023-03-09T01:44:15;1.88;;;1.75;;
13443;SDS011;6794;59.218;18.218;2023-03-09T01:46:46;3.50;;;1.70;;
13443;SDS011;6794;59.218;18.218;2023-03-09T01:49:14;2.45;;;2.00;;
13443;SDS011;6794;59.218;18.218;2023-03-09T01:54:09;3.17;;;2.03;;
13443;SDS011;6794;59.218;18.218;2023-03-09T01:56:36;5.55;;;2.00;;
13443;SDS011;6794;59.218;18.218;2023-03-09T01:59:05;3.40;;;2.00;;
13443;SDS011;6794;59.218;18.218;2023-03-09T02:01:32;4.40;;;1.90;;
13443;SDS011;6794;59.218;18.218;2023-03-09T02:04:00;2.17;;;1.70;;
13443;SDS011;6794;59.218;18.218;2023-03-09T02:06:28;3.55;;;1.83;;
13443;SDS011;6794;59.218;18.218;2023-03-09T02:11:27;2.72;;;1.77;;
13443;SDS011;6794;59.218;18.218;2023-03-09T02:13:53;2.22;;;1.40;;
13443;SDS011;6794;59.218;18.218;2023-03-09T02:16:19;1.55;;;1.42;;
13443;SDS011;6794;59.218;18.218;2023-03-09T02:18:46;2.58;;;1.88;;
13443;SDS011;6794;59.218;18.218;2023-03-09T02:26:38;3.20;;;2.03;;
13443;SDS011;6794;59.218;18.218;2023-03-09T02:29:06;3.42;;;1.92;;
13443;SDS011;6794;59.218;18.218;2023-03-09T02:31:32;2.85;;;1.90;;
13443;SDS011;6794;59.218;18.218;2023-03-09T02:33:58;4.60;;;2.03;;
13443;SDS011;6794;59.218;18.218;2023-03-09T02:36:24;2.60;;;1.80;;
13443;SDS011;6794;59.218;18.218;2023-03-09T02:38:51;1.38;;;1.20;;
13443;SDS011;6794;59.218;18.218;2023-03-09T02:41:17;3.83;;;1.83;;
13443;SDS011;6794;59.218;18.218;2023-03-09T02:43:52;4.82;;;1.83;;
13443;SDS011;6794;59.218;18.218;2023-03-09T02:46:19;5.50;;;2.00;;
13443;SDS011;6794;59.218;18.218;2023-03-09T02:48:45;2.20;;;1.48;;
13443;SDS011;6794;59.218;18.218;2023-03-09T02:51:11;2.28;;;1.50;;
13443;SDS011;6794;59.218;18.218;2023-03-09T02:53:37;6.05;;;2.10;;
13443;SDS011;6794;59.218;18.218;2023-03-09T02:56:03;4.97;;;2.20;;
13443;SDS011;6794;59.218;18.218;2023-03-09T02:58:29;6.03;;;1.90;;
13443;SDS011;6794;59.218;18.218;2023-03-09T03:00:55;2.92;;;2.08;;
13443;SDS011;6794;59.218;18.218;2023-03-09T03:03:21;4.40;;;1.77;;
13443;SDS011;6794;59.218;18.218;2023-03-09T03:05:47;4.03;;;2.20;;
13443;SDS011;6794;59.218;18.218;2023-03-09T03:08:13;3.08;;;2.00;;
13443;SDS011;6794;59.218;18.218;2023-03-09T03:10:40;5.00;;;2.00;;
13443;SDS011;6794;59.218;18.218;2023-03-09T03:13:06;4.80;;;1.60;;
13443;SDS011;6794;59.218;18.218;2023-03-09T03:15:32;1.83;;;1.55;;
13443;SDS011;6794;59.218;18.218;2023-03-09T03:17:58;4.07;;;1.92;;
13443;SDS011;6794;59.218;18.218;2023-03-09T03:20:24;3.13;;;2.00;;
13443;SDS011;6794;59.218;18.218;2023-03-09T03:22:50;3.30;;;2.03;;
13443;SDS011;6794;59.218;18.218;2023-03-09T03:25:16;3.42;;;1.77;;
13443;SDS011;6794;59.218;18.218;2023-03-09T03:27:42;3.80;;;2.10;;
13443;SDS011;6794;59.218;18.218;2023-03-09T03:30:09;4.55;;;1.52;;
13443;SDS011;6794;59.218;18.218;2023-03-09T03:32:35;3.75;;;1.77;;
13443;SDS011;6794;59.218;18.218;2023-03-09T03:35:01;4.45;;;2.35;;
13443;SDS011;6794;59.218;18.218;2023-03-09T03:37:27;3.28;;;2.28;;
13443;SDS011;6794;59.218;18.218;2023-03-09T03:39:54;2.70;;;1.83;;
13443;SDS011;6794;59.218;18.218;2023-03-09T03:42:20;3.65;;;1.90;;
13443;SDS011;6794;59.218;18.218;2023-03-09T03:44:47;3.25;;;1.92;;
13443;SDS011;6794;59.218;18.218;2023-03-09T03:47:13;3.50;;;1.92;;
13443;SDS011;6794;59.218;18.218;2023-03-09T03:49:39;5.35;;;1.90;;
13443;SDS011;6794;59.218;18.218;2023-03-09T03:52:05;4.22;;;2.50;;
13443;SDS011;6794;59.218;18.218;2023-03-09T03:54:32;5.65;;;2.28;;
13443;SDS011;6794;59.218;18.218;2023-03-09T03:56:58;4.18;;;1.92;;
13443;SDS011;6794;59.218;18.218;2023-03-09T03:59:24;2.50;;;1.77;;
13443;SDS011;6794;59.218;18.218;2023-03-09T04:01:50;3.75;;;1.60;;
13443;SDS011;6794;59.218;18.218;2023-03-09T04:04:16;2.03;;;1.58;;
13443;SDS011;6794;59.218;18.218;2023-03-09T04:06:42;3.78;;;2.10;;
13443;SDS011;6794;59.218;18.218;2023-03-09T04:09:08;2.80;;;1.95;;
13443;SDS011;6794;59.218;18.218;2023-03-09T04:11:34;4.47;;;1.90;;
13443;SDS011;6794;59.218;18.218;2023-03-09T04:14:00;2.72;;;1.73;;
13443;SDS011;6794;59.218;18.218;2023-03-09T04:16:26;4.95;;;2.00;;
13443;SDS011;6794;59.218;18.218;2023-03-09T04:18:52;4.35;;;2.05;;
13443;SDS011;6794;59.218;18.218;2023-03-09T04:21:18;5.07;;;2.00;;
13443;SDS011;6794;59.218;18.218;2023-03-09T04:23:47;4.43;;;1.70;;
13443;SDS011;6794;59.218;18.218;2023-03-09T04:26:13;5.30;;;2.58;;
13443;SDS011;6794;59.218;18.218;2023-03-09T04:28:39;3.85;;;1.88;;
13443;SDS011;6794;59.218;18.218;2023-03-09T04:31:05;4.85;;;2.25;;
13443;SDS011;6794;59.218;18.218;2023-03-09T04:33:31;2.45;;;1.55;;
13443;SDS011;6794;59.218;18.218;2023-03-09T04:35:57;4.93;;;1.92;;
13443;SDS011;6794;59.218;18.218;2023-03-09T04:38:23;5.07;;;2.97;;
13443;SDS011;6794;59.218;18.218;2023-03-09T04:40:49;5.78;;;2.17;;
13443;SDS011;6794;59.218;18.218;2023-03-09T04:43:15;3.97;;;2.05;;
13443;SDS011;6794;59.218;18.218;2023-03-09T04:45:42;3.67;;;1.92;;
13443;SDS011;6794;59.218;18.218;2023-03-09T04:48:08;2.47;;;1.58;;
13443;SDS011;6794;59.218;18.218;2023-03-09T04:50:34;3.38;;;1.73;;
13443;SDS011;6794;59.218;18.218;2023-03-09T04:53:00;4.82;;;1.67;;
13443;SDS011;6794;59.218;18.218;2023-03-09T04:55:26;2.90;;;1.58;;
13443;SDS011;6794;59.218;18.218;2023-03-09T04:57:52;3.50;;;1.70;;
13443;SDS011;6794;59.218;18.218;2023-03-09T05:00:18;2.45;;;1.75;;
13443;SDS011;6794;59.218;18.218;2023-03-09T05:02:44;4.22;;;2.30;;
13443;SDS011;6794;59.218;18.218;2023-03-09T05:05:10;4.07;;;2.15;;
13443;SDS011;6794;59.218;18.218;2023-03-09T05:07:36;3.70;;;2.05;;
13443;SDS011;6794;59.218;18.218;2023-03-09T05:10:02;6.90;;;2.00;;
13443;SDS011;6794;59.218;18.218;2023-03-09T05:12:28;2.80;;;1.80;;
13443;SDS011;6794;59.218;18.218;2023-03-09T05:14:58;5.55;;;2.30;;
13443;SDS011;6794;59.218;18.218;2023-03-09T05:17:24;3.22;;;1.63;;
13443;SDS011;6794;59.218;18.218;2023-03-09T05:19:50;2.53;;;2.20;;
13443;SDS011;6794;59.218;18.218;2023-03-09T05:22:16;4.03;;;2.17;;
13443;SDS011;6794;59.218;18.218;2023-03-09T05:24:42;5.65;;;3.10;;
13443;SDS011;6794;59.218;18.218;2023-03-09T05:27:08;2.25;;;2.03;;
13443;SDS011;6794;59.218;18.218;2023-03-09T05:29:34;6.32;;;2.00;;
13443;SDS011;6794;59.218;18.218;2023-03-09T05:32:00;2.88;;;2.03;;
13443;SDS011;6794;59.218;18.218;2023-03-09T05:34:26;4.53;;;2.28;;
13443;SDS011;6794;59.218;18.218;2023-03-09T05:36:53;3.83;;;2.00;;
13443;SDS011;6794;59.218;18.218;2023-03-09T05:39:19;4.32;;;2.30;;
13443;SDS011;6794;59.218;18.218;2023-03-09T05:41:45;3.25;;;2.33;;
13443;SDS011;6794;59.218;18.218;2023-03-09T05:44:11;5.38;;;2.75;;
13443;SDS011;6794;59.218;18.218;2023-03-09T05:46:37;5.07;;;3.00;;
13443;SDS011;6794;59.218;18.218;2023-03-09T05:49:03;4.72;;;2.70;;
13443;SDS011;6794;59.218;18.218;2023-03-09T05:51:29;6.10;;;2.95;;
13443;SDS011;6794;59.218;18.218;2023-03-09T05:53:55;3.88;;;2.55;;
13443;SDS011;6794;59.218;18.218;2023-03-09T05:56:21;4.85;;;2.35;;
13443;SDS011;6794;59.218;18.218;2023-03-09T05:58:48;2.78;;;1.88;;
13443;SDS011;6794;59.218;18.218;2023-03-09T06:01:18;7.97;;;3.88;;
13443;SDS011;6794;59.218;18.218;2023-03-09T06:03:45;4.05;;;2.35;;
13443;SDS011;6794;59.218;18.218;2023-03-09T06:06:11;7.07;;;3.15;;
13443;SDS011;6794;59.218;18.218;2023-03-09T06:08:37;6.85;;;2.88;;
13443;SDS011;6794;59.218;18.218;2023-03-09T06:11:03;7.63;;;4.68;;
13443;SDS011;6794;59.218;18.218;2023-03-09T06:13:29;6.40;;;3.70;;
13443;SDS011;6794;59.218;18.218;2023-03-09T06:15:55;7.03;;;3.45;;
13443;SDS011;6794;59.218;18.218;2023-03-09T06:18:21;6.90;;;3.28;;
13443;SDS011;6794;59.218;18.218;2023-03-09T06:20:48;8.88;;;4.72;;
13443;SDS011;6794;59.218;18.218;2023-03-09T06:23:14;6.22;;;3.30;;
13443;SDS011;6794;59.218;18.218;2023-03-09T06:25:40;3.95;;;2.85;;
13443;SDS011;6794;59.218;18.218;2023-03-09T06:28:06;6.60;;;3.75;;
13443;SDS011;6794;59.218;18.218;2023-03-09T06:30:32;13.50;;;5.15;;
13443;SDS011;6794;59.218;18.218;2023-03-09T06:32:58;10.40;;;5.65;;
13443;SDS011;6794;59.218;18.218;2023-03-09T06:35:24;8.88;;;5.10;;
13443;SDS011;6794;59.218;18.218;2023-03-09T06:37:50;8.85;;;5.13;;
13443;SDS011;6794;59.218;18.218;2023-03-09T06:40:16;10.05;;;5.55;;
13443;SDS011;6794;59.218;18.218;2023-03-09T06:42:42;11.43;;;6.10;;
13443;SDS011;6794;59.218;18.218;2023-03-09T06:45:09;16.00;;;8.55;;
13443;SDS011;6794;59.218;18.218;2023-03-09T06:47:35;13.98;;;7.15;;
13443;SDS011;6794;59.218;18.218;2023-03-09T06:50:01;6.43;;;3.63;;
13443;SDS011;6794;59.218;18.218;2023-03-09T06:52:28;6.10;;;3.85;;
13443;SDS011;6794;59.218;18.218;2023-03-09T06:54:54;9.60;;;4.88;;
13443;SDS011;6794;59.218;18.218;2023-03-09T06:57:20;10.23;;;4.25;;
13443;SDS011;6794;59.218;18.218;2023-03-09T06:59:46;8.95;;;4.68;;
13443;SDS011;6794;59.218;18.218;2023-03-09T07:02:12;7.63;;;4.10;;
13443;SDS011;6794;59.218;18.218;2023-03-09T07:04:39;13.07;;;5.10;;
13443;SDS011;6794;59.218;18.218;2023-03-09T07:07:05;11.23;;;5.60;;
13443;SDS011;6794;59.218;18.218;2023-03-09T07:09:32;12.52;;;6.00;;
13443;SDS011;6794;59.218;18.218;2023-03-09T07:11:59;11.90;;;6.10;;
13443;SDS011;6794;59.218;18.218;2023-03-09T07:14:25;11.95;;;5.70;;
13443;SDS011;6794;59.218;18.218;2023-03-09T07:16:51;8.68;;;5.25;;
13443;SDS011;6794;59.218;18.218;2023-03-09T07:19:18;8.52;;;4.65;;
13443;SDS011;6794;59.218;18.218;2023-03-09T07:21:44;11.45;;;5.13;;
13443;SDS011;6794;59.218;18.218;2023-03-09T07:24:10;8.32;;;5.65;;
13443;SDS011;6794;59.218;18.218;2023-03-09T07:26:36;8.23;;;4.82;;
13443;SDS011;6794;59.218;18.218;2023-03-09T07:29:02;6.88;;;4.57;;
13443;SDS011;6794;59.218;18.218;2023-03-09T07:31:28;7.38;;;4.78;;
13443;SDS011;6794;59.218;18.218;2023-03-09T07:33:55;7.88;;;4.80;;
13443;SDS011;6794;59.218;18.218;2023-03-09T07:36:21;10.27;;;5.05;;
13443;SDS011;6794;59.218;18.218;2023-03-09T07:38:47;9.80;;;5.53;;
13443;SDS011;6794;59.218;18.218;2023-03-09T07:41:13;10.18;;;6.75;;
13443;SDS011;6794;59.218;18.218;2023-03-09T07:43:39;10.00;;;5.55;;
13443;SDS011;6794;59.218;18.218;2023-03-09T07:46:12;11.93;;;5.30;;
13443;SDS011;6794;59.218;18.218;2023-03-09T07:48:40;11.30;;;6.05;;
13443;SDS011;6794;59.218;18.218;2023-03-09T07:51:06;9.23;;;5.57;;
13443;SDS011;6794;59.218;18.218;2023-03-09T07:53:33;9.65;;;5.70;;
13443;SDS011;6794;59.218;18.218;2023-03-09T07:56:00;8.23;;;5.15;;
13443;SDS011;6794;59.218;18.218;2023-03-09T07:58:28;9.63;;;5.45;;
13443;SDS011;6794;59.218;18.218;2023-03-09T08:00:54;16.55;;;7.25;;
13443;SDS011;6794;59.218;18.218;2023-03-09T08:03:21;11.15;;;5.78;;
13443;SDS011;6794;59.218;18.218;2023-03-09T08:05:47;12.25;;;6.53;;
13443;SDS011;6794;59.218;18.218;2023-03-09T08:08:14;11.90;;;6.72;;
13443;SDS011;6794;59.218;18.218;2023-03-09T08:10:46;11.88;;;6.07;;
13443;SDS011;6794;59.218;18.218;2023-03-09T08:13:12;10.57;;;5.72;;
13443;SDS011;6794;59.218;18.218;2023-03-09T08:15:38;12.90;;;6.35;;
13443;SDS011;6794;59.218;18.218;2023-03-09T08:18:05;11.13;;;6.85;;
13443;SDS011;6794;59.218;18.218;2023-03-09T08:20:31;16.75;;;7.65;;
13443;SDS011;6794;59.218;18.218;2023-03-09T08:22:57;14.20;;;7.75;;
13443;SDS011;6794;59.218;18.218;2023-03-09T08:25:23;12.63;;;6.97;;
13443;SDS011;6794;59.218;18.218;2023-03-09T08:27:50;11.20;;;6.80;;
13443;SDS011;6794;59.218;18.218;2023-03-09T08:30:16;14.77;;;7.30;;
13443;SDS011;6794;59.218;18.218;2023-03-09T08:32:45;8.70;;;4.47;;
13443;SDS011;6794;59.218;18.218;2023-03-09T08:35:13;8.43;;;3.38;;
13443;SDS011;6794;59.218;18.218;2023-03-09T08:37:39;8.82;;;2.65;;
13443;SDS011;6794;59.218;18.218;2023-03-09T08:40:05;5.53;;;2.83;;
13443;SDS011;6794;59.218;18.218;2023-03-09T08:42:32;6.28;;;3.33;;
13443;SDS011;6794;59.218;18.218;2023-03-09T08:44:58;5.10;;;3.15;;
13443;SDS011;6794;59.218;18.218;2023-03-09T08:47:24;4.17;;;2.83;;
13443;SDS011;6794;59.218;18.218;2023-03-09T08:49:50;4.50;;;2.53;;
13443;SDS011;6794;59.218;18.218;2023-03-09T08:52:16;5.10;;;2.77;;
13443;SDS011;6794;59.218;18.218;2023-03-09T08:54:43;5.22;;;2.92;;
13443;SDS011;6794;59.218;18.218;2023-03-09T08:57:09;6.15;;;2.63;;
13443;SDS011;6794;59.218;18.218;2023-03-09T08:59:35;5.65;;;2.45;;
13443;SDS011;6794;59.218;18.218;2023-03-09T09:02:01;5.90;;;2.43;;
13443;SDS011;6794;59.218;18.218;2023-03-09T09:04:27;6.38;;;2.60;;
13443;SDS011;6794;59.218;18.218;2023-03-09T09:06:53;4.97;;;1.83;;
13443;SDS011;6794;59.218;18.218;2023-03-09T09:09:20;4.05;;;2.05;;
13443;SDS011;6794;59.218;18.218;2023-03-09T09:11:46;5.00;;;2.50;;
13443;SDS011;6794;59.218;18.218;2023-03-09T09:14:12;4.78;;;2.55;;
13443;SDS011;6794;59.218;18.218;2023-03-09T09:16:38;6.03;;;2.30;;
13443;SDS011;6794;59.218;18.218;2023-03-09T09:19:04;2.70;;;1.73;;
13443;SDS011;6794;59.218;18.218;2023-03-09T09:21:30;6.23;;;2.10;;
13443;SDS011;6794;59.218;18.218;2023-03-09T09:23:57;3.07;;;2.10;;
13443;SDS011;6794;59.218;18.218;2023-03-09T09:26:23;3.53;;;1.90;;
13443;SDS011;6794;59.218;18.218;2023-03-09T09:28:49;3.63;;;2.27;;
13443;SDS011;6794;59.218;18.218;2023-03-09T09:31:17;2.43;;;1.50;;
13443;SDS011;6794;59.218;18.218;2023-03-09T09:33:45;3.37;;;1.77;;
13443;SDS011;6794;59.218;18.218;2023-03-09T09:36:11;6.53;;;2.90;;
13443;SDS011;6794;59.218;18.218;2023-03-09T09:38:39;3.63;;;2.57;;
13443;SDS011;6794;59.218;18.218;2023-03-09T09:41:25;4.70;;;2.77;;
13443;SDS011;6794;59.218;18.218;2023-03-09T09:43:53;5.00;;;1.83;;
13443;SDS011;6794;59.218;18.218;2023-03-09T09:46:21;5.00;;;2.90;;
13443;SDS011;6794;59.218;18.218;2023-03-09T09:48:47;2.33;;;1.50;;
13443;SDS011;6794;59.218;18.218;2023-03-09T09:56:28;4.33;;;2.30;;
13443;SDS011;6794;59.218;18.218;2023-03-09T09:59:05;4.22;;;1.95;;
13443;SDS011;6794;59.218;18.218;2023-03-09T10:01:38;6.17;;;3.13;;
13443;SDS011;6794;59.218;18.218;2023-03-09T10:04:08;3.13;;;2.33;;
13443;SDS011;6794;59.218;18.218;2023-03-09T10:06:35;15.80;;;8.90;;
13443;SDS011;6794;59.218;18.218;2023-03-09T10:09:05;3.00;;;2.30;;
13443;SDS011;6794;59.218;18.218;2023-03-09T10:11:33;5.70;;;3.50;;
13443;SDS011;6794;59.218;18.218;2023-03-09T10:16:28;2.30;;;1.60;;
13443;SDS011;6794;59.218;18.218;2023-03-09T10:19:02;2.53;;;1.37;;
13443;SDS011;6794;59.218;18.218;2023-03-09T10:23:55;1.20;;;1.00;;
13443;SDS011;6794;59.218;18.218;2023-03-09T10:28:48;2.70;;;1.10;;
13443;SDS011;6794;59.218;18.218;2023-03-09T10:31:17;2.77;;;1.20;;
13443;SDS011;6794;59.218;18.218;2023-03-09T10:33:45;1.80;;;1.20;;
13443;SDS011;6794;59.218;18.218;2023-03-09T10:36:21;3.87;;;1.10;;
13443;SDS011;6794;59.218;18.218;2023-03-09T10:38:49;2.37;;;0.70;;
13443;SDS011;6794;59.218;18.218;2023-03-09T10:41:17;1.10;;;0.93;;
13443;SDS011;6794;59.218;18.218;2023-03-09T10:43:44;0.83;;;0.57;;
13443;SDS011;6794;59.218;18.218;2023-03-09T10:46:18;2.38;;;1.20;;
13443;SDS011;6794;59.218;18.218;2023-03-09T10:48:45;0.63;;;0.53;;
13443;SDS011;6794;59.218;18.218;2023-03-09T10:51:34;3.67;;;0.80;;
13443;SDS011;6794;59.218;18.218;2023-03-09T10:56:59;0.50;;;0.50;;
13443;SDS011;6794;59.218;18.218;2023-03-09T10:59:26;0.83;;;0.80;;
13443;SDS011;6794;59.218;18.218;2023-03-09T11:01:54;1.90;;;0.70;;
13443;SDS011;6794;59.218;18.218;2023-03-09T11:06:50;0.63;;;0.63;;
13443;SDS011;6794;59.218;18.218;2023-03-09T11:09:18;2.20;;;0.63;;
13443;SDS011;6794;59.218;18.218;2023-03-09T11:11:45;1.73;;;1.00;;
13443;SDS011;6794;59.218;18.218;2023-03-09T11:14:27;0.87;;;0.70;;
13443;SDS011;6794;59.218;18.218;2023-03-09T11:16:58;1.37;;;0.70;;
13443;SDS011;6794;59.218;18.218;2023-03-09T11:19:26;2.83;;;0.80;;
13443;SDS011;6794;59.218;18.218;2023-03-09T11:24:21;1.10;;;0.77;;
13443;SDS011;6794;59.218;18.218;2023-03-09T11:26:50;1.70;;;0.60;;
13443;SDS011;6794;59.218;18.218;2023-03-09T11:29:28;1.50;;;0.67;;
13443;SDS011;6794;59.218;18.218;2023-03-09T11:31:54;1.10;;;0.80;;
13443;SDS011;6794;59.218;18.218;2023-03-09T11:34:30;0.63;;;0.50;;
13443;SDS011;6794;59.218;18.218;2023-03-09T11:41:54;2.70;;;0.60;;
13443;SDS011;6794;59.218;18.218;2023-03-09T11:44:30;0.20;;;0.20;;
13443;SDS011;6794;59.218;18.218;2023-03-09T11:46:58;0.70;;;0.57;;
13443;SDS011;6794;59.218;18.218;2023-03-09T11:49:27;1.83;;;0.60;;
13443;SDS011;6794;59.218;18.218;2023-03-09T11:51:53;1.03;;;0.50;;
13443;SDS011;6794;59.218;18.218;2023-03-09T11:54:26;1.17;;;1.03;;
13443;SDS011;6794;59.218;18.218;2023-03-09T11:56:55;0.60;;;0.60;;
13443;SDS011;6794;59.218;18.218;2023-03-09T12:04:14;0.50;;;0.50;;
13443;SDS011;6794;59.218;18.218;2023-03-09T12:06:47;0.40;;;0.40;;
13443;SDS011;6794;59.218;18.218;2023-03-09T12:12:31;0.30;;;0.30;;
13443;SDS011;6794;59.218;18.218;2023-03-09T12:14:41;0.30;;;0.30;;
13443;SDS011;6794;59.218;18.218;2023-03-09T12:17:14;0.50;;;0.50;;
13443;SDS011;6794;59.218;18.218;2023-03-09T12:19:44;1.03;;;0.40;;
13443;SDS011;6794;59.218;18.218;2023-03-09T12:22:21;0.87;;;0.50;;
13443;SDS011;6794;59.218;18.218;2023-03-09T12:25:02;0.50;;;0.50;;
13443;SDS011;6794;59.218;18.218;2023-03-09T12:27:28;1.43;;;0.70;;
13443;SDS011;6794;59.218;18.218;2023-03-09T12:32:35;1.40;;;1.00;;
13443;SDS011;6794;59.218;18.218;2023-03-09T12:35:07;0.97;;;0.77;;
13443;SDS011;6794;59.218;18.218;2023-03-09T12:40:02;0.50;;;0.50;;
13443;SDS011;6794;59.218;18.218;2023-03-09T12:42:43;1.07;;;0.63;;
13443;SDS011;6794;59.218;18.218;2023-03-09T12:47:47;4.07;;;0.97;;
13443;SDS011;6794;59.218;18.218;2023-03-09T12:55:25;2.10;;;0.85;;
13443;SDS011;6794;59.218;18.218;2023-03-09T13:08:54;0.98;;;0.80;;
13443;SDS011;6794;59.218;18.218;2023-03-09T13:16:37;1.00;;;0.57;;
13443;SDS011;6794;59.218;18.218;2023-03-09T13:21:40;1.53;;;0.67;;
13443;SDS011;6794;59.218;18.218;2023-03-09T13:24:15;2.00;;;0.70;;
13443;SDS011;6794;59.218;18.218;2023-03-09T13:26:42;1.00;;;0.80;;
13443;SDS011;6794;59.218;18.218;2023-03-09T13:29:08;0.83;;;0.70;;
13443;SDS011;6794;59.218;18.218;2023-03-09T13:31:35;1.67;;;0.70;;
13443;SDS011;6794;59.218;18.218;2023-03-09T13:34:01;1.10;;;0.80;;
13443;SDS011;6794;59.218;18.218;2023-03-09T13:36:28;1.27;;;0.60;;
13443;SDS011;6794;59.218;18.218;2023-03-09T13:38:56;1.70;;;1.00;;
13443;SDS011;6794;59.218;18.218;2023-03-09T13:41:24;2.67;;;0.67;;
13443;SDS011;6794;59.218;18.218;2023-03-09T13:43:52;1.02;;;0.80;;
13443;SDS011;6794;59.218;18.218;2023-03-09T13:48:49;1.20;;;0.80;;
13443;SDS011;6794;59.218;18.218;2023-03-09T13:51:26;0.87;;;0.80;;
13443;SDS011;6794;59.218;18.218;2023-03-09T13:53:53;1.10;;;0.63;;
13443;SDS011;6794;59.218;18.218;2023-03-09T13:56:19;1.80;;;0.80;;
13443;SDS011;6794;59.218;18.218;2023-03-09T13:58:45;1.47;;;0.87;;
13443;SDS011;6794;59.218;18.218;2023-03-09T14:03:47;0.77;;;0.50;;
13443;SDS011;6794;59.218;18.218;2023-03-09T14:06:13;1.30;;;0.83;;
13443;SDS011;6794;59.218;18.218;2023-03-09T14:08:40;0.80;;;0.50;;
13443;SDS011;6794;59.218;18.218;2023-03-09T14:11:07;2.20;;;0.83;;
13443;SDS011;6794;59.218;18.218;2023-03-09T14:13:37;1.40;;;0.40;;
13443;SDS011;6794;59.218;18.218;2023-03-09T14:16:13;0.77;;;0.50;;
13443;SDS011;6794;59.218;18.218;2023-03-09T14:18:47;1.17;;;0.70;;
13443;SDS011;6794;59.218;18.218;2023-03-09T14:21:23;0.87;;;0.73;;
13443;SDS011;6794;59.218;18.218;2023-03-09T14:24:01;0.60;;;0.60;;
13443;SDS011;6794;59.218;18.218;2023-03-09T14:26:34;1.08;;;0.70;;
13443;SDS011;6794;59.218;18.218;2023-03-09T14:31:42;2.30;;;0.70;;
13443;SDS011;6794;59.218;18.218;2023-03-09T14:41:45;2.00;;;0.70;;
13443;SDS011;6794;59.218;18.218;2023-03-09T14:44:30;2.00;;;0.70;;
13443;SDS011;6794;59.218;18.218;2023-03-09T14:46:56;1.03;;;0.50;;
13443;SDS011;6794;59.218;18.218;2023-03-09T14:49:22;1.00;;;0.60;;
13443;SDS011;6794;59.218;18.218;2023-03-09T14:51:48;0.70;;;0.70;;
13443;SDS011;6794;59.218;18.218;2023-03-09T14:54:14;0.80;;;0.53;;
13443;SDS011;6794;59.218;18.218;2023-03-09T14:56:44;3.77;;;0.70;;
13443;SDS011;6794;59.218;18.218;2023-03-09T14:59:14;1.47;;;0.63;;
13443;SDS011;6794;59.218;18.218;2023-03-09T15:01:49;1.00;;;0.50;;
13443;SDS011;6794;59.218;18.218;2023-03-09T15:04:19;4.27;;;1.70;;
13443;SDS011;6794;59.218;18.218;2023-03-09T15:06:46;1.40;;;0.87;;
13443;SDS011;6794;59.218;18.218;2023-03-09T15:09:15;1.20;;;0.80;;
13443;SDS011;6794;59.218;18.218;2023-03-09T15:11:41;1.27;;;0.60;;
13443;SDS011;6794;59.218;18.218;2023-03-09T15:14:09;2.17;;;0.80;;
13443;SDS011;6794;59.218;18.218;2023-03-09T15:16:36;2.30;;;0.50;;
13443;SDS011;6794;59.218;18.218;2023-03-09T15:19:02;1.00;;;0.80;;
13443;SDS011;6794;59.218;18.218;2023-03-09T15:21:28;3.20;;;0.70;;
13443;SDS011;6794;59.218;18.218;2023-03-09T15:23:54;1.53;;;0.70;;
13443;SDS011;6794;59.218;18.218;2023-03-09T15:26:20;1.30;;;0.80;;
13443;SDS011;6794;59.218;18.218;2023-03-09T15:28:46;0.60;;;0.60;;
13443;SDS011;6794;59.218;18.218;2023-03-09T15:31:12;0.70;;;0.57;;
13443;SDS011;6794;59.218;18.218;2023-03-09T15:33:38;2.90;;;0.80;;
13443;SDS011;6794;59.218;18.218;2023-03-09T15:36:06;0.60;;;0.60;;
13443;SDS011;6794;59.218;18.218;2023-03-09T15:38:32;1.63;;;0.50;;
13443;SDS011;6794;59.218;18.218;2023-03-09T15:40:58;1.37;;;0.67;;
13443;SDS011;6794;59.218;18.218;2023-03-09T15:43:24;0.97;;;0.60;;
13443;SDS011;6794;59.218;18.218;2023-03-09T15:45:50;3.30;;;0.70;;
13443;SDS011;6794;59.218;18.218;2023-03-09T15:48:16;2.50;;;0.90;;
13443;SDS011;6794;59.218;18.218;2023-03-09T15:50:49;3.17;;;0.83;;
13443;SDS011;6794;59.218;18.218;2023-03-09T15:53:15;2.70;;;1.40;;
13443;SDS011;6794;59.218;18.218;2023-03-09T15:55:41;1.33;;;0.83;;
13443;SDS011;6794;59.218;18.218;2023-03-09T15:58:08;0.83;;;0.60;;
13443;SDS011;6794;59.218;18.218;2023-03-09T16:00:34;1.03;;;0.87;;
13443;SDS011;6794;59.218;18.218;2023-03-09T16:03:00;1.03;;;0.87;;
13443;SDS011;6794;59.218;18.218;2023-03-09T16:05:28;2.90;;;1.00;;
13443;SDS011;6794;59.218;18.218;2023-03-09T16:07:54;2.00;;;0.83;;
13443;SDS011;6794;59.218;18.218;2023-03-09T16:10:20;1.60;;;1.03;;
13443;SDS011;6794;59.218;18.218;2023-03-09T16:12:46;4.20;;;1.13;;
13443;SDS011;6794;59.218;18.218;2023-03-09T16:15:13;1.73;;;0.90;;
13443;SDS011;6794;59.218;18.218;2023-03-09T16:17:39;1.10;;;0.97;;